createdAt,value
2022-08-23T00:00:24.567Z,45
2022-08-23T00:00:42.080Z,46
2022-08-23T00:01:12.955Z,45
2022-08-23T00:01:34.487Z,46
2022-08-23T00:02:01.962Z,46
2022-08-23T00:02:32.841Z,45
2022-08-23T00:03:04.944Z,46
2022-08-23T00:03:34.380Z,45
2022-08-23T00:03:53.426Z,45
2022-08-23T00:04:30.369Z,45
2022-08-23T00:05:07.846Z,44
2022-08-23T00:05:12.841Z,45
2022-08-23T00:05:34.484Z,45
2022-08-23T00:06:00.555Z,45
2022-08-23T00:06:32.891Z,44
2022-08-23T00:07:05.109Z,44
2022-08-23T00:07:38.251Z,44
2022-08-23T00:07:52.862Z,44
2022-08-23T00:08:24.470Z,45
2022-08-23T00:08:44.643Z,45
2022-08-23T00:09:13.496Z,44
2022-08-23T00:09:35.138Z,44
2022-08-23T00:10:00.681Z,44
2022-08-23T00:10:33.087Z,45
2022-08-23T00:11:04.487Z,45
2022-08-23T00:11:35.526Z,45
2022-08-23T00:12:09.126Z,45
2022-08-23T00:12:34.383Z,45
2022-08-23T00:12:56.491Z,45
2022-08-23T00:13:48.308Z,45
2022-08-23T00:14:00.738Z,45
2022-08-23T00:14:32.792Z,45
2022-08-23T00:15:04.602Z,46
2022-08-23T00:15:35.784Z,46
2022-08-23T00:15:52.641Z,45
2022-08-23T00:16:24.464Z,45
2022-08-23T00:16:41.714Z,45
2022-08-23T00:17:13.076Z,45
2022-08-23T00:17:44.552Z,46
2022-08-23T00:18:16.443Z,45
2022-08-23T00:18:34.398Z,45
2022-08-23T00:19:04.457Z,46
2022-08-23T00:19:34.424Z,46
2022-08-23T00:20:08.486Z,45
2022-08-23T00:20:35.414Z,45
2022-08-23T00:20:56.691Z,45
2022-08-23T00:21:28.568Z,45
2022-08-23T00:22:00.621Z,46
2022-08-23T00:22:32.936Z,47
2022-08-23T00:23:04.506Z,47
2022-08-23T00:23:34.529Z,46
2022-08-23T00:23:52.722Z,46
2022-08-23T00:24:24.514Z,47
2022-08-23T00:24:41.765Z,47
2022-08-23T00:25:12.692Z,47
2022-08-23T00:25:34.409Z,47
2022-08-23T00:26:00.672Z,47
2022-08-23T00:26:32.825Z,47
2022-08-23T00:27:04.647Z,47
2022-08-23T00:27:34.494Z,47
2022-08-23T00:27:52.762Z,47
2022-08-23T00:28:24.455Z,47
2022-08-23T00:28:41.985Z,48
2022-08-23T00:29:12.956Z,47
2022-08-23T00:29:34.405Z,47
2022-08-23T00:30:01.119Z,48
2022-08-23T00:30:33.269Z,48
2022-08-23T00:31:04.580Z,47
2022-08-23T00:31:34.365Z,47
2022-08-23T00:31:52.767Z,47
2022-08-23T00:32:25.107Z,47
2022-08-23T00:32:42.861Z,48
2022-08-23T00:33:12.974Z,47
2022-08-23T00:33:35.525Z,47
2022-08-23T00:34:00.789Z,48
2022-08-23T00:34:32.902Z,48
2022-08-23T00:35:04.628Z,48
2022-08-23T00:35:34.572Z,48
2022-08-23T00:35:52.903Z,47
2022-08-23T00:36:24.517Z,48
2022-08-23T00:36:41.755Z,49
2022-08-23T00:37:12.868Z,50
2022-08-23T00:37:35.724Z,50
2022-08-23T00:38:32.563Z,49
2022-08-23T00:38:48.628Z,49
2022-08-23T00:39:20.708Z,50
2022-08-23T00:39:53.844Z,50
2022-08-23T00:40:24.599Z,49
2022-08-23T00:40:57.398Z,49
2022-08-23T00:41:28.604Z,49
2022-08-23T00:42:00.545Z,48
2022-08-23T00:42:32.886Z,47
2022-08-23T00:43:06.119Z,47
2022-08-23T00:43:34.443Z,47
2022-08-23T00:43:52.806Z,47
2022-08-23T00:44:24.570Z,46
2022-08-23T00:44:42.851Z,47
2022-08-23T00:45:12.920Z,47
2022-08-23T00:45:34.656Z,48
2022-08-23T00:46:00.678Z,48
2022-08-23T00:46:32.881Z,47
2022-08-23T00:47:04.647Z,47
2022-08-23T00:47:37.548Z,48
2022-08-23T00:48:08.438Z,48
2022-08-23T00:48:34.584Z,47
2022-08-23T00:48:57.532Z,48
2022-08-23T00:49:28.457Z,47
2022-08-23T00:50:01.704Z,47
2022-08-23T00:50:32.853Z,46
2022-08-23T00:51:06.027Z,46
2022-08-23T00:51:50.740Z,47
2022-08-23T00:52:11.602Z,47
2022-08-23T00:52:34.442Z,47
2022-08-23T00:53:02.860Z,47
2022-08-23T00:53:28.510Z,47
2022-08-23T00:54:00.662Z,47
2022-08-23T00:54:33.613Z,47
2022-08-23T00:55:05.297Z,48
2022-08-23T00:55:34.418Z,48
2022-08-23T00:55:52.923Z,48
2022-08-23T00:56:24.533Z,48
2022-08-23T00:56:41.618Z,48
2022-08-23T00:57:13.385Z,47
2022-08-23T00:57:34.450Z,48
2022-08-23T00:58:00.847Z,48
2022-08-23T00:58:32.879Z,48
2022-08-23T00:59:04.467Z,47
2022-08-23T00:59:34.460Z,47
2022-08-23T00:59:52.872Z,48
2022-08-23T01:00:24.509Z,48
2022-08-23T01:00:42.730Z,48
2022-08-23T01:01:19.239Z,49
2022-08-23T01:01:41.676Z,48
2022-08-23T01:02:02.705Z,47
2022-08-23T01:02:32.843Z,47
2022-08-23T01:03:04.588Z,48
2022-08-23T01:03:38.909Z,47
2022-08-23T01:04:08.482Z,49
2022-08-23T01:04:34.462Z,49
2022-08-23T01:04:56.461Z,49
2022-08-23T01:05:28.488Z,49
2022-08-23T01:06:01.721Z,49
2022-08-23T01:06:33.224Z,49
2022-08-23T01:07:04.498Z,49
2022-08-23T01:07:35.364Z,49
2022-08-23T01:07:55.059Z,49
2022-08-23T01:08:24.437Z,49
2022-08-23T01:08:41.670Z,49
2022-08-23T01:09:12.774Z,48
2022-08-23T01:09:36.139Z,49
2022-08-23T01:10:01.009Z,49
2022-08-23T01:10:32.850Z,49
2022-08-23T01:11:04.512Z,48
2022-08-23T01:11:35.572Z,48
2022-08-23T01:12:07.862Z,48
2022-08-23T01:12:32.648Z,48
2022-08-23T01:12:42.448Z,47
2022-08-23T01:13:12.823Z,48
2022-08-23T01:13:34.390Z,49
2022-08-23T01:14:00.771Z,48
2022-08-23T01:14:32.931Z,48
2022-08-23T01:15:05.499Z,48
2022-08-23T01:15:35.379Z,48
2022-08-23T01:16:08.385Z,49
2022-08-23T01:16:34.465Z,49
2022-08-23T01:16:56.438Z,49
2022-08-23T01:17:28.534Z,48
2022-08-23T01:18:00.979Z,48
2022-08-23T01:18:32.762Z,48
2022-08-23T01:19:04.432Z,47
2022-08-23T01:19:34.442Z,47
2022-08-23T01:19:52.790Z,48
2022-08-23T01:20:27.069Z,49
2022-08-23T01:20:42.545Z,49
2022-08-23T01:21:12.753Z,49
2022-08-23T01:21:36.535Z,49
2022-08-23T01:22:01.213Z,50
2022-08-23T01:22:33.447Z,50
2022-08-23T01:23:04.518Z,50
2022-08-23T01:23:36.077Z,50
2022-08-23T01:24:08.419Z,50
2022-08-23T01:24:57.774Z,50
2022-08-23T01:25:13.310Z,50
2022-08-23T01:25:34.557Z,50
2022-08-23T01:26:00.797Z,50
2022-08-23T01:26:33.836Z,49
2022-08-23T01:27:05.528Z,49
2022-08-23T01:27:34.769Z,50
2022-08-23T01:27:52.901Z,50
2022-08-23T01:28:24.521Z,50
2022-08-23T01:28:45.724Z,49
2022-08-23T01:29:12.755Z,50
2022-08-23T01:29:40.388Z,50
2022-08-23T01:30:02.358Z,49
2022-08-23T01:30:33.649Z,49
2022-08-23T01:31:06.668Z,50
2022-08-23T01:31:36.099Z,50
2022-08-23T01:32:09.362Z,50
2022-08-23T01:32:34.478Z,50
2022-08-23T01:32:57.202Z,49
2022-08-23T01:33:28.450Z,50
2022-08-23T01:34:02.974Z,49
2022-08-23T01:34:36.455Z,50
2022-08-23T01:35:04.525Z,50
2022-08-23T01:35:35.386Z,50
2022-08-23T01:35:53.126Z,50
2022-08-23T01:36:24.420Z,50
2022-08-23T01:36:41.479Z,49
2022-08-23T01:37:13.160Z,49
2022-08-23T01:37:34.442Z,49
2022-08-23T01:38:00.840Z,49
2022-08-23T01:38:32.949Z,49
2022-08-23T01:39:04.442Z,49
2022-08-23T01:39:34.443Z,48
2022-08-23T01:39:52.810Z,49
2022-08-23T01:40:24.565Z,49
2022-08-23T01:40:42.850Z,48
2022-08-23T01:41:13.293Z,48
2022-08-23T01:41:35.302Z,49
2022-08-23T01:42:00.515Z,49
2022-08-23T01:42:32.790Z,49
2022-08-23T01:43:04.444Z,48
2022-08-23T01:43:37.163Z,49
2022-08-23T01:44:08.340Z,48
2022-08-23T01:44:36.257Z,48
2022-08-23T01:44:57.293Z,48
2022-08-23T01:45:28.566Z,49
2022-08-23T01:46:00.468Z,48
2022-08-23T01:46:32.775Z,49
2022-08-23T01:47:05.367Z,48
2022-08-23T01:47:35.185Z,48
2022-08-23T01:47:53.358Z,48
2022-08-23T01:48:24.463Z,48
2022-08-23T01:48:41.499Z,48
2022-08-23T01:49:12.746Z,48
2022-08-23T01:49:34.459Z,48
2022-08-23T01:50:00.565Z,48
2022-08-23T01:50:32.903Z,49
2022-08-23T01:51:05.244Z,49
2022-08-23T01:51:34.418Z,49
2022-08-23T01:51:52.893Z,49
2022-08-23T01:52:24.357Z,49
2022-08-23T01:52:46.994Z,50
2022-08-23T01:53:12.887Z,50
2022-08-23T01:53:36.361Z,51
2022-08-23T01:54:00.712Z,51
2022-08-23T01:54:32.770Z,51
2022-08-23T01:55:04.626Z,51
2022-08-23T01:55:37.057Z,51
2022-08-23T01:56:09.288Z,51
2022-08-23T01:56:38.588Z,51
2022-08-23T01:56:56.400Z,51
2022-08-23T01:57:28.577Z,51
2022-08-23T01:58:01.126Z,51
2022-08-23T01:58:32.989Z,51
2022-08-23T01:59:04.583Z,51
2022-08-23T01:59:36.774Z,52
2022-08-23T02:00:08.598Z,52
2022-08-23T02:00:35.596Z,52
2022-08-23T02:00:56.447Z,52
2022-08-23T02:01:29.424Z,52
2022-08-23T02:02:00.716Z,51
2022-08-23T02:02:32.981Z,51
2022-08-23T02:03:05.658Z,51
2022-08-23T02:03:34.431Z,51
2022-08-23T02:03:57.252Z,51
2022-08-23T02:04:24.499Z,52
2022-08-23T02:04:43.343Z,52
2022-08-23T02:05:12.876Z,52
2022-08-23T02:05:35.027Z,52
2022-08-23T02:06:00.489Z,52
2022-08-23T02:06:32.946Z,53
2022-08-23T02:07:04.562Z,53
2022-08-23T02:07:36.898Z,53
2022-08-23T02:08:08.408Z,53
2022-08-23T02:08:36.577Z,53
2022-08-23T02:08:56.369Z,53
2022-08-23T02:09:28.501Z,53
2022-08-23T02:10:00.582Z,53
2022-08-23T02:10:32.694Z,53
2022-08-23T02:11:04.391Z,53
2022-08-23T02:11:35.080Z,53
2022-08-23T02:11:53.336Z,53
2022-08-23T02:12:24.449Z,53
2022-08-23T02:12:43.250Z,54
2022-08-23T02:13:13.392Z,54
2022-08-23T02:13:34.676Z,54
2022-08-23T02:14:01.794Z,54
2022-08-23T02:14:32.913Z,54
2022-08-23T02:15:04.579Z,54
2022-08-23T02:15:34.553Z,54
2022-08-23T02:15:53.409Z,55
2022-08-23T02:16:26.345Z,54
2022-08-23T02:17:03.535Z,54
2022-08-23T02:17:28.457Z,55
2022-08-23T02:18:02.477Z,55
2022-08-23T02:18:33.439Z,55
2022-08-23T02:19:05.223Z,55
2022-08-23T02:19:37.357Z,55
2022-08-23T02:20:08.489Z,55
2022-08-23T02:20:35.328Z,55
2022-08-23T02:20:56.374Z,55
2022-08-23T02:21:30.031Z,55
2022-08-23T02:22:00.493Z,56
2022-08-23T02:22:32.700Z,56
2022-08-23T02:23:05.229Z,55
2022-08-23T02:23:34.623Z,55
2022-08-23T02:23:53.556Z,55
2022-08-23T02:24:24.264Z,55
2022-08-23T02:24:42.696Z,55
2022-08-23T02:25:12.785Z,55
2022-08-23T02:25:34.456Z,55
2022-08-23T02:26:00.502Z,55
2022-08-23T02:26:33.472Z,55
2022-08-23T02:27:05.068Z,55
2022-08-23T02:27:34.672Z,55
2022-08-23T02:27:52.752Z,55
2022-08-23T02:28:24.464Z,56
2022-08-23T02:28:42.432Z,56
2022-08-23T02:29:12.913Z,55
2022-08-23T02:29:34.569Z,55
2022-08-23T02:30:00.543Z,55
2022-08-23T02:30:32.814Z,55
2022-08-23T02:31:04.417Z,55
2022-08-23T02:31:35.228Z,55
2022-08-23T02:32:08.319Z,55
2022-08-23T02:32:34.668Z,55
2022-08-23T02:32:56.390Z,55
2022-08-23T02:33:28.407Z,55
2022-08-23T02:37:12.930Z,55
2022-08-23T02:37:34.539Z,55
2022-08-23T02:38:00.779Z,55
2022-08-23T02:38:33.592Z,55
2022-08-23T02:39:06.402Z,56
2022-08-23T02:39:34.999Z,56
2022-08-23T02:39:52.874Z,56
2022-08-23T02:40:24.440Z,55
2022-08-23T02:40:42.804Z,56
2022-08-23T02:41:12.970Z,56
2022-08-23T02:41:36.328Z,56
2022-08-23T02:42:01.651Z,55
2022-08-23T02:42:32.729Z,55
2022-08-23T02:43:04.487Z,56
2022-08-23T02:43:38.275Z,56
2022-08-23T02:43:52.769Z,56
2022-08-23T02:44:24.471Z,56
2022-08-23T02:44:41.962Z,56
2022-08-23T02:45:12.825Z,55
2022-08-23T02:45:34.571Z,56
2022-08-23T02:46:00.634Z,56
2022-08-23T02:46:33.247Z,56
2022-08-23T02:47:05.143Z,55
2022-08-23T02:47:34.545Z,55
2022-08-23T02:47:53.424Z,56
2022-08-23T02:48:24.405Z,56
2022-08-23T02:48:41.638Z,56
2022-08-23T02:49:12.782Z,56
2022-08-23T02:49:35.508Z,56
2022-08-23T02:50:00.571Z,56
2022-08-23T02:50:32.869Z,56
2022-08-23T02:51:04.560Z,56
2022-08-23T02:51:34.651Z,57
2022-08-23T02:51:52.748Z,57
2022-08-23T02:52:24.491Z,57
2022-08-23T02:52:41.610Z,57
2022-08-23T02:53:12.883Z,56
2022-08-23T02:53:34.594Z,56
2022-08-23T02:54:01.436Z,56
2022-08-23T02:54:32.637Z,56
2022-08-23T02:55:04.528Z,57
2022-08-23T02:55:34.586Z,57
2022-08-23T02:55:52.834Z,57
2022-08-23T02:56:24.323Z,57
2022-08-23T02:56:42.510Z,57
2022-08-23T02:57:13.366Z,57
2022-08-23T02:57:35.498Z,57
2022-08-23T02:58:00.717Z,57
2022-08-23T02:58:32.688Z,56
2022-08-23T02:59:04.406Z,57
2022-08-23T02:59:34.473Z,56
2022-08-23T02:59:52.722Z,56
2022-08-23T03:00:24.410Z,56
2022-08-23T03:00:42.543Z,56
2022-08-23T03:01:12.723Z,56
2022-08-23T03:01:34.556Z,56
2022-08-23T03:02:00.455Z,57
2022-08-23T03:02:33.601Z,57
2022-08-23T03:03:04.461Z,57
2022-08-23T03:03:34.616Z,57
2022-08-23T03:03:52.624Z,57
2022-08-23T03:04:24.293Z,57
2022-08-23T03:04:42.022Z,57
2022-08-23T03:05:12.635Z,57
2022-08-23T03:05:34.544Z,57
2022-08-23T03:06:24.939Z,56
2022-08-23T03:06:32.701Z,56
2022-08-23T03:07:04.476Z,57
2022-08-23T03:07:34.573Z,57
2022-08-23T03:07:52.698Z,56
2022-08-23T03:08:24.392Z,56
2022-08-23T03:08:41.438Z,56
2022-08-23T03:09:12.574Z,56
2022-08-23T03:09:34.558Z,56
2022-08-23T03:10:00.546Z,57
2022-08-23T03:10:32.781Z,56
2022-08-23T03:11:09.065Z,56
2022-08-23T03:11:34.641Z,56
2022-08-23T03:12:08.384Z,56
2022-08-23T03:12:34.527Z,57
2022-08-23T03:12:56.373Z,57
2022-08-23T03:13:28.433Z,57
2022-08-23T03:14:00.619Z,56
2022-08-23T03:14:32.759Z,57
2022-08-23T03:15:04.603Z,56
2022-08-23T03:15:35.702Z,56
2022-08-23T03:15:52.244Z,55
2022-08-23T03:16:24.359Z,56
2022-08-23T03:16:41.450Z,56
2022-08-23T03:17:12.578Z,55
2022-08-23T03:17:34.834Z,55
2022-08-23T03:18:00.873Z,55
2022-08-23T03:18:32.647Z,55
2022-08-23T03:19:04.471Z,55
2022-08-23T03:19:34.550Z,56
2022-08-23T03:19:52.663Z,56
2022-08-23T03:20:24.371Z,55
2022-08-23T03:20:41.697Z,55
2022-08-23T03:21:12.801Z,55
2022-08-23T03:21:34.567Z,55
2022-08-23T03:22:00.433Z,56
2022-08-23T03:22:33.574Z,56
2022-08-23T03:23:04.914Z,56
2022-08-23T03:23:34.623Z,56
2022-08-23T03:23:52.659Z,55
2022-08-23T03:24:24.314Z,55
2022-08-23T03:24:41.416Z,55
2022-08-23T03:25:12.677Z,56
2022-08-23T03:25:34.513Z,56
2022-08-23T03:26:00.636Z,56
2022-08-23T03:26:32.736Z,56
2022-08-23T03:27:04.769Z,56
2022-08-23T03:27:38.446Z,56
2022-08-23T03:28:08.449Z,56
2022-08-23T03:28:35.371Z,56
2022-08-23T03:28:56.678Z,56
2022-08-23T03:29:28.513Z,57
2022-08-23T03:30:00.578Z,57
2022-08-23T03:30:32.457Z,57
2022-08-23T03:31:04.387Z,57
2022-08-23T03:31:34.599Z,57
2022-08-23T03:31:53.927Z,57
2022-08-23T03:32:25.145Z,57
2022-08-23T03:32:42.232Z,57
2022-08-23T03:33:12.564Z,57
2022-08-23T03:33:36.467Z,57
2022-08-23T03:34:01.687Z,57
2022-08-23T03:34:32.573Z,57
2022-08-23T03:35:04.383Z,58
2022-08-23T03:35:34.471Z,58
2022-08-23T03:35:53.013Z,57
2022-08-23T03:36:28.229Z,58
2022-08-23T03:36:41.537Z,58
2022-08-23T03:37:12.508Z,58
2022-08-23T03:37:34.539Z,58
2022-08-23T03:38:00.617Z,57
2022-08-23T03:38:32.592Z,57
2022-08-23T03:39:04.377Z,57
2022-08-23T03:39:34.721Z,57
2022-08-23T03:39:53.492Z,57
2022-08-23T03:40:24.413Z,57
2022-08-23T03:40:41.346Z,57
2022-08-23T03:41:13.312Z,57
2022-08-23T03:41:35.107Z,57
2022-08-23T03:42:00.436Z,57
2022-08-23T03:42:32.551Z,57
2022-08-23T03:43:04.945Z,57
2022-08-23T03:43:34.508Z,57
2022-08-23T03:43:52.439Z,57
2022-08-23T03:44:24.286Z,57
2022-08-23T03:44:41.361Z,57
2022-08-23T03:45:12.600Z,57
2022-08-23T03:45:36.598Z,57
2022-08-23T03:46:00.390Z,57
2022-08-23T03:46:34.145Z,57
2022-08-23T03:47:04.458Z,57
2022-08-23T03:47:34.479Z,57
2022-08-23T03:48:08.223Z,57
2022-08-23T03:48:34.463Z,57
2022-08-23T03:48:56.328Z,57
2022-08-23T03:49:28.386Z,57
2022-08-23T03:50:01.578Z,57
2022-08-23T03:50:32.385Z,58
2022-08-23T03:51:05.003Z,58
2022-08-23T03:51:34.474Z,58
2022-08-23T03:51:52.402Z,57
2022-08-23T03:52:24.464Z,58
2022-08-23T03:52:41.801Z,57
2022-08-23T03:53:12.461Z,57
2022-08-23T03:53:35.544Z,57
2022-08-23T03:54:00.371Z,57
2022-08-23T03:54:33.532Z,57
2022-08-23T03:55:04.473Z,57
2022-08-23T03:55:42.180Z,57
2022-08-23T03:56:09.811Z,57
2022-08-23T03:56:35.402Z,57
2022-08-23T03:56:56.420Z,57
2022-08-23T03:57:28.531Z,57
2022-08-23T03:58:00.635Z,57
2022-08-23T03:58:32.458Z,57
2022-08-23T03:59:04.468Z,57
2022-08-23T03:59:35.392Z,57
2022-08-23T03:59:52.666Z,57
2022-08-23T04:00:24.273Z,57
2022-08-23T04:00:41.335Z,57
2022-08-23T04:01:14.143Z,57
2022-08-23T04:01:34.566Z,57
2022-08-23T04:02:00.604Z,57
2022-08-23T04:02:32.301Z,57
2022-08-23T04:03:05.207Z,58
2022-08-23T04:03:34.609Z,58
2022-08-23T04:03:52.452Z,58
2022-08-23T04:04:36.468Z,58
2022-08-23T04:04:56.486Z,59
2022-08-23T04:05:28.570Z,58
2022-08-23T04:06:00.427Z,57
2022-08-23T04:06:32.414Z,57
2022-08-23T04:07:04.381Z,57
2022-08-23T04:07:36.030Z,57
2022-08-23T04:08:08.416Z,58
2022-08-23T04:08:35.739Z,58
2022-08-23T04:08:56.250Z,58
2022-08-23T04:09:28.413Z,58
2022-08-23T04:10:00.255Z,58
2022-08-23T04:10:34.743Z,57
2022-08-23T04:11:04.336Z,57
2022-08-23T04:11:34.525Z,57
2022-08-23T04:11:52.413Z,57
2022-08-23T04:12:24.062Z,58
2022-08-23T04:12:42.689Z,58
2022-08-23T04:13:12.305Z,58
2022-08-23T04:13:36.314Z,57
2022-08-23T04:14:02.186Z,57
2022-08-23T04:14:32.363Z,57
2022-08-23T04:15:04.552Z,57
2022-08-23T04:15:34.562Z,57
2022-08-23T04:15:52.534Z,58
2022-08-23T04:16:24.846Z,58
2022-08-23T04:16:42.017Z,58
2022-08-23T04:17:12.371Z,58
2022-08-23T04:17:37.156Z,58
2022-08-23T04:18:00.861Z,58
2022-08-23T04:18:33.720Z,58
2022-08-23T04:19:04.348Z,58
2022-08-23T04:19:34.396Z,58
2022-08-23T04:19:52.453Z,58
2022-08-23T04:20:24.306Z,58
2022-08-23T04:20:41.445Z,58
2022-08-23T04:21:12.669Z,58
2022-08-23T04:21:35.369Z,58
2022-08-23T04:22:00.273Z,58
2022-08-23T04:22:32.426Z,58
2022-08-23T04:23:04.502Z,58
2022-08-23T04:23:37.041Z,58
2022-08-23T04:24:08.334Z,58
2022-08-23T04:24:34.504Z,58
2022-08-23T04:24:56.274Z,58
2022-08-23T04:25:34.361Z,58
2022-08-23T04:26:00.375Z,58
2022-08-23T04:26:33.311Z,58
2022-08-23T04:27:04.726Z,58
2022-08-23T04:27:34.526Z,59
2022-08-23T04:27:52.540Z,59
2022-08-23T04:28:24.401Z,59
2022-08-23T04:28:42.581Z,59
2022-08-23T04:29:12.550Z,58
2022-08-23T04:29:44.416Z,58
2022-08-23T04:30:16.469Z,58
2022-08-23T04:30:34.735Z,58
2022-08-23T04:31:05.347Z,58
2022-08-23T04:31:35.591Z,58
2022-08-23T04:32:11.532Z,58
2022-08-23T04:32:35.431Z,58
2022-08-23T04:32:56.492Z,58
2022-08-23T04:33:28.773Z,58
2022-08-23T04:34:01.375Z,58
2022-08-23T04:34:32.942Z,58
2022-08-23T04:35:04.586Z,58
2022-08-23T04:35:34.721Z,58
2022-08-23T04:35:52.765Z,58
2022-08-23T04:36:24.519Z,58
2022-08-23T04:36:44.851Z,58
2022-08-23T04:37:12.399Z,58
2022-08-23T04:37:34.676Z,58
2022-08-23T04:38:00.879Z,59
2022-08-23T04:38:33.741Z,59
2022-08-23T04:39:04.661Z,59
2022-08-23T04:39:34.633Z,59
2022-08-23T04:39:52.825Z,59
2022-08-23T04:40:24.474Z,59
2022-08-23T04:40:41.746Z,58
2022-08-23T04:41:12.783Z,58
2022-08-23T04:41:35.583Z,58
2022-08-23T04:42:00.587Z,58
2022-08-23T04:42:32.868Z,57
2022-08-23T04:43:05.372Z,58
2022-08-23T04:43:35.611Z,58
2022-08-23T04:43:52.185Z,58
2022-08-23T04:44:24.431Z,58
2022-08-23T04:44:41.590Z,58
2022-08-23T04:45:12.946Z,58
2022-08-23T04:45:35.432Z,58
2022-08-23T04:46:00.884Z,58
2022-08-23T04:46:32.662Z,58
2022-08-23T04:47:04.537Z,58
2022-08-23T04:47:35.545Z,58
2022-08-23T04:47:52.218Z,58
2022-08-23T04:48:24.334Z,57
2022-08-23T04:48:41.450Z,57
2022-08-23T04:49:12.902Z,57
2022-08-23T04:49:34.876Z,58
2022-08-23T04:50:00.649Z,58
2022-08-23T04:50:32.505Z,58
2022-08-23T04:51:05.323Z,58
2022-08-23T04:51:34.765Z,58
2022-08-23T04:51:53.542Z,58
2022-08-23T04:52:24.366Z,58
2022-08-23T04:52:42.631Z,58
2022-08-23T04:53:12.583Z,58
2022-08-23T04:53:34.773Z,58
2022-08-23T04:54:01.488Z,57
2022-08-23T04:54:32.925Z,58
2022-08-23T04:55:04.566Z,58
2022-08-23T04:55:36.317Z,58
2022-08-23T04:55:52.455Z,58
2022-08-23T04:56:24.439Z,58
2022-08-23T04:56:41.634Z,58
2022-08-23T04:57:13.859Z,58
2022-08-23T04:57:34.673Z,58
2022-08-23T04:58:01.911Z,58
2022-08-23T04:58:32.613Z,58
2022-08-23T04:59:04.601Z,58
2022-08-23T04:59:34.747Z,58
2022-08-23T04:59:52.467Z,58
2022-08-23T05:00:27.957Z,58
2022-08-23T05:00:59.279Z,58
2022-08-23T05:01:28.583Z,58
2022-08-23T05:02:01.504Z,58
2022-08-23T05:02:32.481Z,58
2022-08-23T05:03:04.512Z,59
2022-08-23T05:03:34.724Z,59
2022-08-23T05:03:52.478Z,59
2022-08-23T05:04:24.307Z,60
2022-08-23T05:04:41.446Z,60
2022-08-23T05:05:12.459Z,60
2022-08-23T05:05:34.698Z,60
2022-08-23T05:06:00.570Z,60
2022-08-23T05:06:32.400Z,60
2022-08-23T05:07:04.796Z,59
2022-08-23T05:07:42.309Z,60
2022-08-23T05:07:53.439Z,60
2022-08-23T05:08:24.305Z,60
2022-08-23T05:08:41.485Z,60
2022-08-23T05:09:15.025Z,60
2022-08-23T05:09:34.777Z,60
2022-08-23T05:10:00.461Z,61
2022-08-23T05:10:32.388Z,61
2022-08-23T05:11:05.397Z,60
2022-08-23T05:11:35.317Z,60
2022-08-23T05:11:52.393Z,60
2022-08-23T05:12:25.264Z,60
2022-08-23T05:12:43.280Z,60
2022-08-23T05:13:12.372Z,60
2022-08-23T05:13:35.577Z,60
2022-08-23T05:14:00.461Z,60
2022-08-23T05:14:32.371Z,60
2022-08-23T05:15:04.685Z,60
2022-08-23T05:15:34.680Z,60
2022-08-23T05:15:52.627Z,60
2022-08-23T05:16:24.373Z,60
2022-08-23T05:16:42.199Z,60
2022-08-23T05:17:18.661Z,60
2022-08-23T05:17:39.731Z,60
2022-08-23T05:18:05.672Z,60
2022-08-23T05:18:38.598Z,62
2022-08-23T05:19:09.746Z,62
2022-08-23T05:19:39.889Z,62
2022-08-23T05:19:58.833Z,61
2022-08-23T05:20:29.345Z,61
2022-08-23T05:20:47.668Z,61
2022-08-23T05:21:17.585Z,61
2022-08-23T05:21:39.753Z,61
2022-08-23T05:22:05.473Z,61
2022-08-23T05:22:37.598Z,61
2022-08-23T05:23:09.547Z,61
2022-08-23T05:23:39.800Z,60
2022-08-23T05:23:57.501Z,60
2022-08-23T05:24:29.482Z,60
2022-08-23T05:24:48.243Z,60
2022-08-23T05:25:17.437Z,60
2022-08-23T05:25:40.891Z,60
2022-08-23T05:26:05.769Z,60
2022-08-23T05:26:37.486Z,60
2022-08-23T05:27:13.499Z,60
2022-08-23T05:27:40.601Z,60
2022-08-23T05:28:12.761Z,60
2022-08-23T05:28:30.375Z,61
2022-08-23T05:28:48.649Z,61
2022-08-23T05:29:17.598Z,61
2022-08-23T05:29:40.665Z,61
2022-08-23T05:30:06.557Z,61
2022-08-23T05:30:37.540Z,61
2022-08-23T05:31:11.613Z,61
2022-08-23T05:31:39.956Z,61
2022-08-23T05:31:57.687Z,61
2022-08-23T05:32:32.905Z,60
2022-08-23T05:32:47.157Z,60
2022-08-23T05:33:17.729Z,60
2022-08-23T05:33:40.797Z,60
2022-08-23T05:34:07.589Z,60
2022-08-23T05:34:37.407Z,60
2022-08-23T05:35:11.269Z,60
2022-08-23T05:35:39.870Z,60
2022-08-23T05:35:57.586Z,60
2022-08-23T05:36:29.397Z,60
2022-08-23T05:36:47.643Z,60
2022-08-23T05:37:18.601Z,60
2022-08-23T05:37:40.003Z,60
2022-08-23T05:38:05.723Z,60
2022-08-23T05:38:37.346Z,60
2022-08-23T05:39:09.880Z,60
2022-08-23T05:39:40.792Z,60
2022-08-23T05:39:59.234Z,60
2022-08-23T05:40:29.433Z,60
2022-08-23T05:40:46.547Z,60
2022-08-23T05:41:17.328Z,60
2022-08-23T05:41:37.873Z,60
2022-08-23T05:42:00.512Z,60
2022-08-23T05:42:32.423Z,61
2022-08-23T05:43:04.444Z,61
2022-08-23T05:43:35.492Z,61
2022-08-23T05:43:52.445Z,61
2022-08-23T05:44:26.376Z,61
2022-08-23T05:44:56.387Z,61
2022-08-23T05:45:28.563Z,61
2022-08-23T05:46:00.474Z,61
2022-08-23T05:46:33.477Z,61
2022-08-23T05:47:04.442Z,60
2022-08-23T05:47:34.599Z,61
2022-08-23T05:47:52.158Z,61
2022-08-23T05:48:25.262Z,60
2022-08-23T05:48:42.494Z,61
2022-08-23T05:49:12.296Z,60
2022-08-23T05:49:34.729Z,60
2022-08-23T05:50:00.453Z,60
2022-08-23T05:50:32.334Z,60
2022-08-23T05:51:04.491Z,60
2022-08-23T05:51:35.587Z,60
2022-08-23T05:52:08.390Z,60
2022-08-23T05:52:34.902Z,59
2022-08-23T05:52:56.413Z,59
2022-08-23T05:53:28.482Z,59
2022-08-23T05:54:00.453Z,59
2022-08-23T05:54:32.321Z,59
2022-08-23T05:55:05.547Z,59
2022-08-23T05:55:35.635Z,59
2022-08-23T05:55:52.311Z,59
2022-08-23T05:56:24.400Z,59
2022-08-23T05:56:45.142Z,59
2022-08-23T05:57:12.279Z,59
2022-08-23T05:57:35.651Z,59
2022-08-23T05:58:00.681Z,59
2022-08-23T05:58:33.662Z,59
2022-08-23T05:59:04.749Z,59
2022-08-23T05:59:34.711Z,59
2022-08-23T05:59:52.270Z,59
2022-08-23T06:00:28.026Z,59
2022-08-23T06:00:41.795Z,59
2022-08-23T06:01:12.502Z,59
2022-08-23T06:01:34.711Z,59
2022-08-23T06:02:00.376Z,60
2022-08-23T06:02:36.744Z,59
2022-08-23T06:03:04.542Z,59
2022-08-23T06:03:34.722Z,59
2022-08-23T06:03:52.294Z,60
2022-08-23T06:04:24.358Z,59
2022-08-23T06:04:42.395Z,59
2022-08-23T06:05:13.678Z,59
2022-08-23T06:05:34.956Z,59
2022-08-23T06:06:00.461Z,59
2022-08-23T06:06:37.684Z,59
2022-08-23T06:07:04.735Z,60
2022-08-23T06:07:34.950Z,60
2022-08-23T06:07:52.628Z,60
2022-08-23T06:08:24.307Z,59
2022-08-23T06:08:41.360Z,59
2022-08-23T06:09:12.274Z,59
2022-08-23T06:09:34.817Z,59
2022-08-23T06:10:00.434Z,59
2022-08-23T06:10:32.458Z,59
2022-08-23T06:11:04.877Z,59
2022-08-23T06:11:35.290Z,59
2022-08-23T06:12:08.602Z,59
2022-08-23T06:12:35.576Z,59
2022-08-23T06:12:57.085Z,59
2022-08-23T06:13:28.422Z,59
2022-08-23T06:14:00.484Z,59
2022-08-23T06:14:32.351Z,59
2022-08-23T06:15:04.677Z,59
2022-08-23T06:15:35.744Z,59
2022-08-23T06:15:53.022Z,59
2022-08-23T06:16:25.916Z,59
2022-08-23T06:16:42.591Z,58
2022-08-23T06:17:12.226Z,58
2022-08-23T06:17:34.749Z,58
2022-08-23T06:18:01.489Z,59
2022-08-23T06:18:33.823Z,59
2022-08-23T06:19:04.642Z,59
2022-08-23T06:19:34.727Z,59
2022-08-23T06:19:52.323Z,59
2022-08-23T06:20:25.144Z,58
2022-08-23T06:20:42.461Z,58
2022-08-23T06:21:12.487Z,58
2022-08-23T06:21:36.080Z,58
2022-08-23T06:22:00.624Z,58
2022-08-23T06:22:32.331Z,58
2022-08-23T06:23:06.036Z,58
2022-08-23T06:23:35.005Z,58
2022-08-23T06:23:52.097Z,58
2022-08-23T06:24:24.312Z,58
2022-08-23T06:24:42.413Z,58
2022-08-23T06:25:12.253Z,58
2022-08-23T06:25:36.608Z,58
2022-08-23T06:26:00.346Z,58
2022-08-23T06:26:32.272Z,58
2022-08-23T06:27:04.941Z,58
2022-08-23T06:27:34.785Z,58
2022-08-23T06:27:52.224Z,59
2022-08-23T06:28:25.782Z,59
2022-08-23T06:28:50.360Z,59
2022-08-23T06:29:12.132Z,61
2022-08-23T06:29:37.570Z,61
2022-08-23T06:30:00.575Z,61
2022-08-23T06:30:32.314Z,61
2022-08-23T06:31:04.728Z,60
2022-08-23T06:31:36.706Z,60
2022-08-23T06:32:08.576Z,61
2022-08-23T06:32:35.422Z,61
2022-08-23T06:32:56.494Z,61
2022-08-23T06:33:28.379Z,60
2022-08-23T06:34:00.719Z,60
2022-08-23T06:34:32.426Z,60
2022-08-23T06:35:33.296Z,60
2022-08-23T06:35:52.337Z,60
2022-08-23T06:36:24.654Z,60
2022-08-23T06:36:41.874Z,60
2022-08-23T06:37:13.790Z,60